EXS47VA EGSS-LEMH
Flight info
| Callsign | EXS47VA |
|---|---|
| Flight time | 2h 0m |
| Altitude | 35000 |
| Route | NUGBO1S NUGBO M183 SILVA Q41 COWLY DCT GWC UN859 SOPIL DCT BALAN DCT EVPOK DCT NARAK DCT GAI DCT LOMRA DCT ROCAN DCT GEANT/N0400F290 DCT GIR DCT SALON DCT SULID N727 SARGO SARGO5B |
| Aircraft | B738/M-SDFGHIJ1J3J4J7M3RWXYZ/LB1D1 |
Departure
| Time | 2026-04-24 12:59 |
|---|---|
| Airport | London Stansted Airport (EGSS) |
Arrival
| Time | 2026-04-24 14:59 |
|---|---|
| Airport | Menorca Airport (LEMH) |
| Time | Latitude | Longitude | Altitude | Speed | Heading |
|---|---|---|---|---|---|
| 2026-04-24 12:26 | 51.89026 | 0.25365 | 342 ft | 0 kts | 222° |
| 2026-04-24 12:47 | 51.89034 | 0.25377 | 341 ft | 2 kts | 222° |
| 2026-04-24 12:47 | 51.89045 | 0.25393 | 342 ft | 2 kts | 222° |
| 2026-04-24 12:47 | 51.89055 | 0.25412 | 342 ft | 2 kts | 251° |
| 2026-04-24 12:48 | 51.89057 | 0.25436 | 342 ft | 2 kts | 282° |
| 2026-04-24 12:48 | 51.89050 | 0.25458 | 342 ft | 2 kts | 314° |
| 2026-04-24 12:48 | 51.89043 | 0.25469 | 342 ft | 0 kts | 316° |
| 2026-04-24 12:48 | 51.89041 | 0.25471 | 342 ft | 0 kts | 314° |
| 2026-04-24 12:51 | 51.89051 | 0.25453 | 342 ft | 4 kts | 313° |
| 2026-04-24 12:52 | 51.89088 | 0.25389 | 342 ft | 9 kts | 313° |
| 2026-04-24 12:52 | 51.89130 | 0.25315 | 343 ft | 8 kts | 312° |
| 2026-04-24 12:52 | 51.89144 | 0.25235 | 343 ft | 8 kts | 247° |
| 2026-04-24 12:52 | 51.89084 | 0.25133 | 341 ft | 16 kts | 222° |
| 2026-04-24 12:53 | 51.88988 | 0.24989 | 339 ft | 19 kts | 223° |
| 2026-04-24 12:53 | 51.88887 | 0.24837 | 338 ft | 20 kts | 222° |
| 2026-04-24 12:53 | 51.88784 | 0.24682 | 337 ft | 20 kts | 223° |
| 2026-04-24 12:53 | 51.88680 | 0.24526 | 336 ft | 20 kts | 222° |
| 2026-04-24 12:54 | 51.88573 | 0.24365 | 336 ft | 21 kts | 223° |
| 2026-04-24 12:54 | 51.88464 | 0.24202 | 337 ft | 21 kts | 222° |
| 2026-04-24 12:54 | 51.88355 | 0.24039 | 338 ft | 21 kts | 223° |
| 2026-04-24 12:54 | 51.88249 | 0.23879 | 340 ft | 21 kts | 223° |
| 2026-04-24 12:55 | 51.88143 | 0.23720 | 341 ft | 20 kts | 222° |
| 2026-04-24 12:55 | 51.88036 | 0.23559 | 342 ft | 20 kts | 224° |
| 2026-04-24 12:55 | 51.87930 | 0.23401 | 342 ft | 19 kts | 223° |
| 2026-04-24 12:55 | 51.87873 | 0.23289 | 342 ft | 9 kts | 262° |
| 2026-04-24 12:56 | 51.87905 | 0.23199 | 342 ft | 9 kts | 313° |
| 2026-04-24 12:56 | 51.87919 | 0.23093 | 342 ft | 12 kts | 237° |
| 2026-04-24 12:56 | 51.87854 | 0.22990 | 341 ft | 12 kts | 223° |
| 2026-04-24 12:56 | 51.87817 | 0.22895 | 341 ft | 8 kts | 287° |
| 2026-04-24 12:57 | 51.87854 | 0.22823 | 340 ft | 8 kts | 313° |
| 2026-04-24 12:57 | 51.87907 | 0.22728 | 339 ft | 13 kts | 310° |
| 2026-04-24 12:57 | 51.87943 | 0.22656 | 339 ft | 2 kts | 335° |
| 2026-04-24 12:57 | 51.87959 | 0.22667 | 339 ft | 2 kts | 43° |
| 2026-04-24 12:58 | 51.87973 | 0.22689 | 339 ft | 7 kts | 43° |
| 2026-04-24 12:58 | 51.88180 | 0.23001 | 341 ft | 74 kts | 42° |
| 2026-04-24 12:58 | 51.88709 | 0.23795 | 339 ft | 131 kts | 43° |
| 2026-04-24 12:58 | 51.89489 | 0.24965 | 461 ft | 165 kts | 42° |
| 2026-04-24 12:59 | 51.90310 | 0.26192 | 1138 ft | 161 kts | 43° |
| 2026-04-24 12:59 | 51.91110 | 0.27404 | 1749 ft | 158 kts | 43° |
| 2026-04-24 12:59 | 51.91933 | 0.28634 | 2111 ft | 169 kts | 44° |
| 2026-04-24 12:59 | 51.92955 | 0.29811 | 2400 ft | 189 kts | 21° |
| 2026-04-24 13:00 | 51.94303 | 0.29986 | 2752 ft | 207 kts | 349° |
| 2026-04-24 13:00 | 51.95678 | 0.28997 | 3095 ft | 227 kts | 324° |
| 2026-04-24 13:00 | 51.96726 | 0.27040 | 3479 ft | 244 kts | 296° |
| 2026-04-24 13:00 | 51.97191 | 0.24323 | 3873 ft | 259 kts | 279° |
| 2026-04-24 13:01 | 51.97429 | 0.21360 | 4285 ft | 272 kts | 277° |
| 2026-04-24 13:01 | 51.97683 | 0.18316 | 4917 ft | 276 kts | 279° |
| 2026-04-24 13:01 | 51.97987 | 0.15213 | 5595 ft | 278 kts | 280° |
| 2026-04-24 13:01 | 51.98317 | 0.12141 | 6277 ft | 279 kts | 281° |
| 2026-04-24 13:02 | 51.98511 | 0.09041 | 6904 ft | 283 kts | 267° |
| 2026-04-24 13:02 | 51.98221 | 0.05833 | 7375 ft | 287 kts | 258° |
| 2026-04-24 13:02 | 51.97778 | 0.02721 | 7645 ft | 284 kts | 256° |
| 2026-04-24 13:02 | 51.97300 | -0.00407 | 8184 ft | 289 kts | 256° |
| 2026-04-24 13:03 | 51.96812 | -0.03553 | 8889 ft | 290 kts | 256° |
| 2026-04-24 13:03 | 51.96321 | -0.06713 | 9555 ft | 293 kts | 256° |
| 2026-04-24 13:03 | 51.95825 | -0.09920 | 10239 ft | 296 kts | 256° |
| 2026-04-24 13:03 | 51.95325 | -0.13181 | 10813 ft | 303 kts | 256° |
| 2026-04-24 13:04 | 51.94809 | -0.16569 | 11203 ft | 317 kts | 255° |
| 2026-04-24 13:04 | 51.94086 | -0.19994 | 11561 ft | 332 kts | 246° |
| 2026-04-24 13:04 | 51.93073 | -0.23408 | 11947 ft | 341 kts | 242° |
| 2026-04-24 13:04 | 51.92014 | -0.26653 | 12418 ft | 346 kts | 242° |
| 2026-04-24 13:05 | 51.90873 | -0.30073 | 12922 ft | 347 kts | 241° |
| 2026-04-24 13:05 | 51.89714 | -0.33538 | 13579 ft | 352 kts | 241° |
| 2026-04-24 13:05 | 51.88550 | -0.37031 | 14335 ft | 354 kts | 241° |
| 2026-04-24 13:05 | 51.87391 | -0.40525 | 15099 ft | 356 kts | 241° |
| 2026-04-24 13:06 | 51.86211 | -0.44095 | 15859 ft | 359 kts | 241° |
| 2026-04-24 13:06 | 51.85044 | -0.47650 | 16580 ft | 362 kts | 241° |
| 2026-04-24 13:06 | 51.83874 | -0.51234 | 17297 ft | 365 kts | 241° |
| 2026-04-24 13:06 | 51.82671 | -0.54879 | 17983 ft | 367 kts | 238° |
| 2026-04-24 13:07 | 51.81080 | -0.58039 | 18646 ft | 367 kts | 220° |
| 2026-04-24 13:07 | 51.78921 | -0.60172 | 19275 ft | 367 kts | 201° |
| 2026-04-24 13:07 | 51.76464 | -0.61259 | 19820 ft | 370 kts | 191° |
| 2026-04-24 13:07 | 51.73920 | -0.61885 | 20195 ft | 370 kts | 187° |
| 2026-04-24 13:08 | 51.71328 | -0.62332 | 20584 ft | 372 kts | 186° |
| 2026-04-24 13:08 | 51.68751 | -0.62738 | 20896 ft | 373 kts | 186° |
| 2026-04-24 13:08 | 51.66177 | -0.63140 | 21402 ft | 375 kts | 187° |
| 2026-04-24 13:09 | 51.60919 | -0.63962 | 22553 ft | 382 kts | 187° |
| 2026-04-24 13:09 | 51.58279 | -0.64376 | 23096 ft | 385 kts | 187° |
| 2026-04-24 13:09 | 51.55633 | -0.64793 | 23626 ft | 388 kts | 188° |
| 2026-04-24 13:09 | 51.52921 | -0.65220 | 24122 ft | 392 kts | 187° |
| 2026-04-24 13:10 | 51.50492 | -0.65602 | 24512 ft | 395 kts | 187° |
| 2026-04-24 13:10 | 51.47746 | -0.66034 | 24987 ft | 399 kts | 188° |
| 2026-04-24 13:10 | 51.44965 | -0.66471 | 25397 ft | 403 kts | 188° |
| 2026-04-24 13:10 | 51.42148 | -0.66912 | 25869 ft | 406 kts | 188° |
| 2026-04-24 13:11 | 51.39339 | -0.67039 | 26158 ft | 416 kts | 178° |
| 2026-04-24 13:11 | 51.36461 | -0.66180 | 26618 ft | 423 kts | 168° |
| 2026-04-24 13:11 | 51.33602 | -0.64829 | 27051 ft | 427 kts | 166° |
| 2026-04-24 13:11 | 51.30786 | -0.63364 | 27378 ft | 432 kts | 165° |
| 2026-04-24 13:12 | 51.27902 | -0.61832 | 27777 ft | 436 kts | 165° |
| 2026-04-24 13:12 | 51.25014 | -0.60286 | 28167 ft | 439 kts | 165° |
| 2026-04-24 13:12 | 51.22080 | -0.58710 | 28582 ft | 442 kts | 165° |
| 2026-04-24 13:12 | 51.19146 | -0.57134 | 28923 ft | 446 kts | 165° |
| 2026-04-24 13:13 | 51.16165 | -0.55537 | 29311 ft | 449 kts | 165° |
| 2026-04-24 13:13 | 51.13176 | -0.53998 | 29686 ft | 451 kts | 166° |
| 2026-04-24 13:13 | 51.10170 | -0.52522 | 30056 ft | 454 kts | 167° |
| 2026-04-24 13:13 | 51.07132 | -0.51064 | 30692 ft | 450 kts | 167° |
| 2026-04-24 13:14 | 51.04168 | -0.49650 | 31310 ft | 446 kts | 167° |
| 2026-04-24 13:14 | 51.01180 | -0.48226 | 31810 ft | 445 kts | 166° |
| 2026-04-24 13:14 | 50.98237 | -0.46821 | 32300 ft | 443 kts | 166° |
| 2026-04-24 13:14 | 50.95303 | -0.45417 | 32778 ft | 441 kts | 166° |
| 2026-04-24 13:15 | 50.92365 | -0.44011 | 33230 ft | 440 kts | 166° |
| 2026-04-24 13:15 | 50.89429 | -0.42602 | 33630 ft | 440 kts | 166° |
| 2026-04-24 13:15 | 50.86504 | -0.41196 | 34076 ft | 438 kts | 166° |
| 2026-04-24 13:15 | 50.83588 | -0.39794 | 34510 ft | 437 kts | 166° |
| 2026-04-24 13:16 | 50.80675 | -0.38393 | 34924 ft | 436 kts | 166° |
| 2026-04-24 13:16 | 50.77804 | -0.37014 | 35269 ft | 436 kts | 166° |
| 2026-04-24 13:16 | 50.71989 | -0.34226 | 35267 ft | 434 kts | 166° |
| 2026-04-24 13:17 | 50.66337 | -0.31518 | 35265 ft | 433 kts | 166° |
| 2026-04-24 13:17 | 50.60593 | -0.28777 | 35271 ft | 434 kts | 166° |
| 2026-04-24 13:18 | 50.54816 | -0.26028 | 35268 ft | 435 kts | 166° |
| 2026-04-24 13:18 | 50.49056 | -0.23292 | 35260 ft | 434 kts | 166° |
| 2026-04-24 13:19 | 50.43279 | -0.20555 | 35256 ft | 434 kts | 166° |
| 2026-04-24 13:19 | 50.37495 | -0.17822 | 35258 ft | 434 kts | 166° |
| 2026-04-24 13:20 | 50.31737 | -0.15107 | 35249 ft | 434 kts | 166° |
| 2026-04-24 13:20 | 50.25952 | -0.12390 | 35247 ft | 434 kts | 166° |
| 2026-04-24 13:21 | 50.20173 | -0.09779 | 35248 ft | 434 kts | 167° |
| 2026-04-24 13:21 | 50.14396 | -0.07244 | 35247 ft | 434 kts | 167° |
| 2026-04-24 13:22 | 50.08611 | -0.04711 | 35235 ft | 434 kts | 166° |
| 2026-04-24 13:22 | 50.02780 | -0.02152 | 35239 ft | 434 kts | 166° |
| 2026-04-24 13:23 | 49.97004 | 0.00385 | 35232 ft | 434 kts | 166° |
| 2026-04-24 13:23 | 49.91214 | 0.02928 | 35231 ft | 435 kts | 166° |
| 2026-04-24 13:24 | 49.85361 | 0.05493 | 35228 ft | 435 kts | 166° |
| 2026-04-24 13:24 | 49.79530 | 0.08042 | 35215 ft | 436 kts | 166° |
| 2026-04-24 13:25 | 49.73739 | 0.10567 | 35219 ft | 436 kts | 166° |
| 2026-04-24 13:25 | 49.67879 | 0.13115 | 35216 ft | 437 kts | 166° |
| 2026-04-24 13:26 | 49.62053 | 0.15643 | 35216 ft | 437 kts | 166° |
| 2026-04-24 13:26 | 49.56198 | 0.18177 | 35214 ft | 437 kts | 166° |
| 2026-04-24 13:27 | 49.50333 | 0.20711 | 35212 ft | 437 kts | 166° |
| 2026-04-24 13:27 | 49.44476 | 0.23234 | 35208 ft | 438 kts | 166° |
| 2026-04-24 13:28 | 49.38633 | 0.25745 | 35210 ft | 437 kts | 165° |
| 2026-04-24 13:28 | 49.32747 | 0.28267 | 35205 ft | 438 kts | 165° |
| 2026-04-24 13:29 | 49.26906 | 0.30763 | 35196 ft | 439 kts | 165° |
| 2026-04-24 13:29 | 49.21046 | 0.33263 | 35193 ft | 438 kts | 165° |
| 2026-04-24 13:30 | 49.15175 | 0.35760 | 35189 ft | 438 kts | 165° |
| 2026-04-24 13:30 | 49.09287 | 0.38259 | 35186 ft | 439 kts | 165° |
| 2026-04-24 13:31 | 49.03424 | 0.40742 | 35179 ft | 439 kts | 165° |
| 2026-04-24 13:31 | 48.97567 | 0.43215 | 35177 ft | 438 kts | 165° |
| 2026-04-24 13:32 | 48.91676 | 0.45696 | 35176 ft | 438 kts | 165° |
| 2026-04-24 13:32 | 48.85789 | 0.48169 | 35174 ft | 439 kts | 165° |
| 2026-04-24 13:33 | 48.79876 | 0.50648 | 35175 ft | 439 kts | 165° |
| 2026-04-24 13:33 | 48.73987 | 0.53111 | 35174 ft | 439 kts | 165° |
| 2026-04-24 13:34 | 48.68095 | 0.55569 | 35173 ft | 439 kts | 165° |
| 2026-04-24 13:34 | 48.62221 | 0.58013 | 35166 ft | 440 kts | 165° |
| 2026-04-24 13:35 | 48.56321 | 0.60463 | 35167 ft | 441 kts | 165° |
| 2026-04-24 13:35 | 48.50401 | 0.62914 | 35158 ft | 442 kts | 165° |
| 2026-04-24 13:36 | 48.44498 | 0.65353 | 35156 ft | 442 kts | 165° |
| 2026-04-24 13:36 | 48.38539 | 0.67808 | 35156 ft | 442 kts | 165° |
| 2026-04-24 13:37 | 48.32704 | 0.70207 | 35154 ft | 442 kts | 165° |
| 2026-04-24 13:37 | 48.26797 | 0.72630 | 35152 ft | 442 kts | 165° |
| 2026-04-24 13:38 | 48.20842 | 0.75067 | 35151 ft | 442 kts | 165° |
| 2026-04-24 13:38 | 48.14945 | 0.77475 | 35145 ft | 443 kts | 165° |
| 2026-04-24 13:39 | 48.08996 | 0.79897 | 35148 ft | 443 kts | 165° |
| 2026-04-24 13:39 | 48.03033 | 0.82320 | 35141 ft | 444 kts | 165° |
| 2026-04-24 13:40 | 47.97068 | 0.84738 | 35144 ft | 444 kts | 165° |
| 2026-04-24 13:40 | 47.91137 | 0.87136 | 35137 ft | 444 kts | 165° |
| 2026-04-24 13:41 | 47.85137 | 0.89556 | 35132 ft | 444 kts | 165° |
| 2026-04-24 13:41 | 47.79148 | 0.91965 | 35129 ft | 446 kts | 165° |
| 2026-04-24 13:42 | 47.73255 | 0.94329 | 35128 ft | 447 kts | 165° |
| 2026-04-24 13:42 | 47.67244 | 0.96737 | 35121 ft | 446 kts | 165° |
| 2026-04-24 13:43 | 47.61283 | 0.99119 | 35119 ft | 447 kts | 165° |
| 2026-04-24 13:43 | 47.55235 | 1.01529 | 35122 ft | 447 kts | 165° |
| 2026-04-24 13:44 | 47.49247 | 1.03909 | 35113 ft | 446 kts | 165° |
| 2026-04-24 13:44 | 47.43193 | 1.05996 | 35116 ft | 446 kts | 172° |
| 2026-04-24 13:45 | 47.37032 | 1.06616 | 35111 ft | 446 kts | 180° |
| 2026-04-24 13:45 | 47.30799 | 1.06462 | 35105 ft | 445 kts | 182° |
| 2026-04-24 13:46 | 47.24594 | 1.06191 | 35109 ft | 447 kts | 182° |
| 2026-04-24 13:46 | 47.18449 | 1.05955 | 35104 ft | 445 kts | 182° |
| 2026-04-24 13:47 | 47.12295 | 1.05761 | 35102 ft | 446 kts | 182° |
| 2026-04-24 13:47 | 47.06083 | 1.05594 | 34987 ft | 445 kts | 182° |
| 2026-04-24 13:48 | 47.02980 | 1.05517 | 35094 ft | 446 kts | 182° |
| 2026-04-24 13:48 | 46.99872 | 1.05426 | 35102 ft | 448 kts | 182° |
| 2026-04-24 13:48 | 46.93665 | 1.05170 | 35102 ft | 444 kts | 183° |
| 2026-04-24 13:49 | 46.87476 | 1.04886 | 35092 ft | 445 kts | 183° |
| 2026-04-24 13:49 | 46.81294 | 1.04607 | 35090 ft | 444 kts | 183° |
| 2026-04-24 13:50 | 46.75143 | 1.04360 | 35085 ft | 444 kts | 181° |
| 2026-04-24 13:50 | 46.68962 | 1.05206 | 35090 ft | 446 kts | 172° |
| 2026-04-24 13:51 | 46.62873 | 1.06797 | 35081 ft | 445 kts | 171° |
| 2026-04-24 13:51 | 46.56773 | 1.08435 | 35086 ft | 444 kts | 171° |
| 2026-04-24 13:52 | 46.50789 | 1.09951 | 35080 ft | 445 kts | 171° |
| 2026-04-24 13:52 | 46.44671 | 1.11561 | 35083 ft | 444 kts | 171° |
| 2026-04-24 13:53 | 46.38589 | 1.13193 | 35079 ft | 443 kts | 171° |
| 2026-04-24 13:53 | 46.32541 | 1.14798 | 35088 ft | 442 kts | 171° |
| 2026-04-24 13:54 | 46.26499 | 1.16382 | 35087 ft | 441 kts | 171° |
| 2026-04-24 13:54 | 46.20460 | 1.17952 | 35085 ft | 441 kts | 171° |
| 2026-04-24 13:55 | 46.14431 | 1.19514 | 35085 ft | 442 kts | 171° |
| 2026-04-24 13:55 | 46.08372 | 1.21078 | 35081 ft | 441 kts | 171° |
| 2026-04-24 13:56 | 46.02327 | 1.22635 | 35084 ft | 440 kts | 171° |
| 2026-04-24 13:56 | 45.96322 | 1.24178 | 35091 ft | 440 kts | 171° |
| 2026-04-24 13:57 | 45.90303 | 1.25720 | 35091 ft | 438 kts | 171° |
| 2026-04-24 13:57 | 45.84266 | 1.27264 | 35097 ft | 439 kts | 171° |
| 2026-04-24 13:58 | 45.78310 | 1.28785 | 35094 ft | 437 kts | 171° |
| 2026-04-24 13:58 | 45.72330 | 1.30308 | 35089 ft | 438 kts | 171° |
| 2026-04-24 13:59 | 45.66311 | 1.31836 | 35083 ft | 437 kts | 171° |
| 2026-04-24 13:59 | 45.60321 | 1.33355 | 35083 ft | 437 kts | 171° |
| 2026-04-24 14:00 | 45.54353 | 1.34865 | 35079 ft | 436 kts | 171° |
| 2026-04-24 14:00 | 45.48406 | 1.36366 | 35077 ft | 435 kts | 171° |
| 2026-04-24 14:01 | 45.42413 | 1.37875 | 35078 ft | 435 kts | 171° |
| 2026-04-24 14:01 | 45.36465 | 1.39370 | 35072 ft | 434 kts | 171° |
| 2026-04-24 14:02 | 45.30502 | 1.40866 | 35075 ft | 434 kts | 171° |
| 2026-04-24 14:02 | 45.24582 | 1.42347 | 35066 ft | 434 kts | 171° |
| 2026-04-24 14:03 | 45.18655 | 1.43828 | 35073 ft | 433 kts | 171° |
| 2026-04-24 14:03 | 45.12732 | 1.45305 | 35080 ft | 433 kts | 171° |
| 2026-04-24 14:04 | 45.06797 | 1.46782 | 35082 ft | 432 kts | 171° |
| 2026-04-24 14:04 | 45.00886 | 1.48249 | 35086 ft | 431 kts | 171° |
| 2026-04-24 14:05 | 44.94968 | 1.49714 | 35081 ft | 431 kts | 171° |
| 2026-04-24 14:05 | 44.89046 | 1.51177 | 35073 ft | 432 kts | 171° |
| 2026-04-24 14:06 | 44.83138 | 1.52635 | 35071 ft | 432 kts | 171° |
| 2026-04-24 14:06 | 44.77213 | 1.54093 | 35075 ft | 432 kts | 171° |
| 2026-04-24 14:07 | 44.71314 | 1.55542 | 35071 ft | 432 kts | 171° |
| 2026-04-24 14:07 | 44.65375 | 1.56997 | 35071 ft | 432 kts | 171° |
| 2026-04-24 14:08 | 44.59475 | 1.58441 | 35069 ft | 432 kts | 171° |
| 2026-04-24 14:08 | 44.53551 | 1.59887 | 35067 ft | 432 kts | 171° |
| 2026-04-24 14:09 | 44.47594 | 1.61338 | 35067 ft | 432 kts | 171° |
| 2026-04-24 14:09 | 44.41679 | 1.62776 | 35066 ft | 432 kts | 171° |
| 2026-04-24 14:10 | 44.35784 | 1.64205 | 35068 ft | 432 kts | 171° |
| 2026-04-24 14:10 | 44.29890 | 1.65850 | 35064 ft | 431 kts | 169° |
| 2026-04-24 14:11 | 44.24017 | 1.67716 | 35067 ft | 433 kts | 168° |
| 2026-04-24 14:12 | 44.15213 | 1.70507 | 35067 ft | 432 kts | 169° |
| 2026-04-24 14:12 | 44.09361 | 1.72320 | 35067 ft | 432 kts | 169° |
| 2026-04-24 14:13 | 44.03451 | 1.74132 | 35071 ft | 433 kts | 169° |
| 2026-04-24 14:13 | 43.97847 | 1.75841 | 35067 ft | 431 kts | 169° |
| 2026-04-24 14:14 | 43.91989 | 1.77621 | 35062 ft | 432 kts | 169° |
| 2026-04-24 14:14 | 43.83262 | 1.80266 | 35060 ft | 433 kts | 168° |
| 2026-04-24 14:15 | 43.77388 | 1.82043 | 35059 ft | 433 kts | 168° |
| 2026-04-24 14:15 | 43.71450 | 1.83834 | 35059 ft | 434 kts | 168° |
| 2026-04-24 14:16 | 43.65580 | 1.85602 | 35056 ft | 433 kts | 169° |
| 2026-04-24 14:17 | 43.56769 | 1.88249 | 35058 ft | 431 kts | 169° |
| 2026-04-24 14:17 | 43.47925 | 1.90897 | 35059 ft | 434 kts | 168° |
| 2026-04-24 14:18 | 43.42039 | 1.92655 | 35064 ft | 434 kts | 168° |
| 2026-04-24 14:18 | 43.36103 | 1.94425 | 35057 ft | 433 kts | 168° |
| 2026-04-24 14:19 | 43.30233 | 1.96172 | 35053 ft | 433 kts | 168° |
| 2026-04-24 14:19 | 43.24330 | 1.97924 | 35052 ft | 434 kts | 168° |
| 2026-04-24 14:20 | 43.18424 | 1.99674 | 35058 ft | 433 kts | 168° |
| 2026-04-24 14:20 | 43.12555 | 2.01410 | 35066 ft | 434 kts | 168° |
| 2026-04-24 14:21 | 43.06651 | 2.03152 | 35068 ft | 433 kts | 168° |
| 2026-04-24 14:21 | 43.00819 | 2.04871 | 35075 ft | 434 kts | 168° |
| 2026-04-24 14:22 | 42.94929 | 2.06603 | 35083 ft | 433 kts | 168° |
| 2026-04-24 14:23 | 42.86159 | 2.09176 | 35104 ft | 433 kts | 168° |
| 2026-04-24 14:23 | 42.80259 | 2.10902 | 35130 ft | 434 kts | 168° |
| 2026-04-24 14:24 | 42.74358 | 2.12625 | 35149 ft | 434 kts | 168° |
| 2026-04-24 14:24 | 42.68466 | 2.14342 | 35145 ft | 432 kts | 168° |
| 2026-04-24 14:25 | 42.62583 | 2.16053 | 35149 ft | 432 kts | 168° |
| 2026-04-24 14:25 | 42.56731 | 2.17752 | 35162 ft | 433 kts | 168° |
| 2026-04-24 14:26 | 42.50814 | 2.19466 | 35169 ft | 433 kts | 168° |
| 2026-04-24 14:26 | 42.44995 | 2.21425 | 35158 ft | 434 kts | 160° |
| 2026-04-24 14:26 | 42.42238 | 2.23125 | 35153 ft | 434 kts | 149° |
| 2026-04-24 14:27 | 42.39711 | 2.25421 | 35153 ft | 435 kts | 143° |
| 2026-04-24 14:27 | 42.35006 | 2.30523 | 35136 ft | 435 kts | 140° |
| 2026-04-24 14:28 | 42.30381 | 2.35829 | 35118 ft | 435 kts | 139° |
| 2026-04-24 14:28 | 42.25775 | 2.41073 | 35068 ft | 437 kts | 140° |
| 2026-04-24 14:28 | 42.23405 | 2.43740 | 34764 ft | 438 kts | 140° |
| 2026-04-24 14:29 | 42.21079 | 2.46340 | 34472 ft | 437 kts | 140° |
| 2026-04-24 14:29 | 42.18738 | 2.48946 | 34193 ft | 437 kts | 140° |
| 2026-04-24 14:29 | 42.16400 | 2.51541 | 33919 ft | 439 kts | 140° |
| 2026-04-24 14:29 | 42.14043 | 2.54150 | 33645 ft | 440 kts | 140° |
| 2026-04-24 14:30 | 42.12441 | 2.55921 | 33459 ft | 441 kts | 140° |
| 2026-04-24 14:30 | 42.09299 | 2.59387 | 33094 ft | 442 kts | 140° |
| 2026-04-24 14:30 | 42.06918 | 2.62009 | 32819 ft | 442 kts | 140° |
| 2026-04-24 14:30 | 42.04547 | 2.64618 | 32544 ft | 442 kts | 140° |
| 2026-04-24 14:31 | 42.02162 | 2.67238 | 32270 ft | 443 kts | 141° |
| 2026-04-24 14:31 | 41.99762 | 2.69873 | 31994 ft | 444 kts | 141° |
| 2026-04-24 14:31 | 41.97384 | 2.72482 | 31722 ft | 445 kts | 141° |
| 2026-04-24 14:31 | 41.94967 | 2.75132 | 31447 ft | 447 kts | 141° |
| 2026-04-24 14:32 | 41.92553 | 2.77767 | 31173 ft | 447 kts | 141° |
| 2026-04-24 14:32 | 41.90078 | 2.80319 | 30899 ft | 448 kts | 143° |
| 2026-04-24 14:32 | 41.87557 | 2.82771 | 30626 ft | 448 kts | 144° |
| 2026-04-24 14:32 | 41.84987 | 2.85199 | 30353 ft | 449 kts | 145° |
| 2026-04-24 14:33 | 41.82470 | 2.87553 | 30101 ft | 440 kts | 145° |
| 2026-04-24 14:33 | 41.79991 | 2.89868 | 29880 ft | 429 kts | 145° |
| 2026-04-24 14:33 | 41.77571 | 2.92132 | 29660 ft | 418 kts | 145° |
| 2026-04-24 14:33 | 41.75241 | 2.94319 | 29449 ft | 408 kts | 145° |
| 2026-04-24 14:34 | 41.72948 | 2.96478 | 29236 ft | 398 kts | 145° |
| 2026-04-24 14:34 | 41.70690 | 2.98608 | 29112 ft | 392 kts | 144° |
| 2026-04-24 14:34 | 41.68461 | 3.00716 | 29112 ft | 397 kts | 144° |
| 2026-04-24 14:35 | 41.63950 | 3.04986 | 29101 ft | 398 kts | 144° |
| 2026-04-24 14:35 | 41.59434 | 3.09261 | 29104 ft | 397 kts | 144° |
| 2026-04-24 14:36 | 41.54935 | 3.13515 | 29107 ft | 397 kts | 144° |
| 2026-04-24 14:36 | 41.50424 | 3.17774 | 29108 ft | 398 kts | 144° |
| 2026-04-24 14:36 | 41.48170 | 3.19864 | 28984 ft | 401 kts | 146° |
| 2026-04-24 14:37 | 41.45807 | 3.21898 | 28713 ft | 398 kts | 148° |
| 2026-04-24 14:37 | 41.43480 | 3.23807 | 28450 ft | 394 kts | 148° |
| 2026-04-24 14:37 | 41.41143 | 3.25688 | 28188 ft | 392 kts | 149° |
| 2026-04-24 14:37 | 41.38810 | 3.27561 | 27929 ft | 393 kts | 149° |
| 2026-04-24 14:38 | 41.36502 | 3.29418 | 27674 ft | 392 kts | 148° |
| 2026-04-24 14:38 | 41.34150 | 3.31320 | 27408 ft | 391 kts | 148° |
| 2026-04-24 14:38 | 41.31854 | 3.33183 | 27146 ft | 388 kts | 148° |
| 2026-04-24 14:38 | 41.29567 | 3.35044 | 26885 ft | 386 kts | 148° |
| 2026-04-24 14:39 | 41.27288 | 3.36902 | 26626 ft | 385 kts | 148° |
| 2026-04-24 14:39 | 41.25017 | 3.38754 | 26367 ft | 384 kts | 148° |
| 2026-04-24 14:39 | 41.22724 | 3.40625 | 26106 ft | 383 kts | 148° |
| 2026-04-24 14:39 | 41.20459 | 3.42473 | 25845 ft | 381 kts | 148° |
| 2026-04-24 14:40 | 41.18230 | 3.44290 | 25590 ft | 379 kts | 148° |
| 2026-04-24 14:40 | 41.15993 | 3.46111 | 25324 ft | 379 kts | 148° |
| 2026-04-24 14:40 | 41.13740 | 3.47943 | 24940 ft | 377 kts | 148° |
| 2026-04-24 14:40 | 41.11532 | 3.49735 | 24512 ft | 374 kts | 148° |
| 2026-04-24 14:41 | 41.09322 | 3.51528 | 24078 ft | 371 kts | 147° |
| 2026-04-24 14:41 | 41.07130 | 3.53304 | 23640 ft | 369 kts | 147° |
| 2026-04-24 14:41 | 41.04930 | 3.55087 | 23194 ft | 367 kts | 147° |
| 2026-04-24 14:41 | 41.02766 | 3.56840 | 22759 ft | 365 kts | 147° |
| 2026-04-24 14:42 | 41.00613 | 3.58583 | 22328 ft | 362 kts | 147° |
| 2026-04-24 14:42 | 40.98498 | 3.60294 | 21906 ft | 360 kts | 147° |
| 2026-04-24 14:42 | 40.96363 | 3.62020 | 21476 ft | 358 kts | 147° |
| 2026-04-24 14:42 | 40.94239 | 3.63736 | 21054 ft | 355 kts | 147° |
| 2026-04-24 14:43 | 40.92159 | 3.65415 | 20636 ft | 353 kts | 148° |
| 2026-04-24 14:43 | 40.90072 | 3.67098 | 20219 ft | 351 kts | 148° |
| 2026-04-24 14:43 | 40.87981 | 3.68783 | 19798 ft | 348 kts | 148° |
| 2026-04-24 14:43 | 40.85933 | 3.70431 | 19382 ft | 346 kts | 148° |
| 2026-04-24 14:44 | 40.83883 | 3.72081 | 18972 ft | 343 kts | 148° |
| 2026-04-24 14:44 | 40.81855 | 3.73712 | 18565 ft | 341 kts | 148° |
| 2026-04-24 14:44 | 40.79834 | 3.75337 | 18152 ft | 339 kts | 148° |
| 2026-04-24 14:44 | 40.77831 | 3.76947 | 17755 ft | 336 kts | 148° |
| 2026-04-24 14:45 | 40.75835 | 3.78549 | 17348 ft | 334 kts | 148° |
| 2026-04-24 14:45 | 40.73860 | 3.80133 | 16949 ft | 332 kts | 148° |
| 2026-04-24 14:45 | 40.71917 | 3.81690 | 16554 ft | 330 kts | 148° |
| 2026-04-24 14:45 | 40.69953 | 3.83261 | 16152 ft | 328 kts | 148° |
| 2026-04-24 14:46 | 40.68030 | 3.84800 | 15771 ft | 326 kts | 148° |
| 2026-04-24 14:46 | 40.66085 | 3.86355 | 15221 ft | 326 kts | 148° |
| 2026-04-24 14:46 | 40.64150 | 3.87901 | 14572 ft | 324 kts | 147° |
| 2026-04-24 14:46 | 40.62249 | 3.89418 | 14047 ft | 321 kts | 147° |
| 2026-04-24 14:47 | 40.60336 | 3.90945 | 13586 ft | 321 kts | 147° |
| 2026-04-24 14:47 | 40.58454 | 3.92446 | 13211 ft | 319 kts | 148° |
| 2026-04-24 14:47 | 40.56542 | 3.93969 | 12817 ft | 317 kts | 148° |
| 2026-04-24 14:47 | 40.54675 | 3.95456 | 12435 ft | 315 kts | 148° |
| 2026-04-24 14:48 | 40.52797 | 3.96950 | 12057 ft | 313 kts | 148° |
| 2026-04-24 14:48 | 40.50963 | 3.98408 | 11676 ft | 312 kts | 148° |
| 2026-04-24 14:48 | 40.49096 | 3.99851 | 11285 ft | 310 kts | 150° |
| 2026-04-24 14:48 | 40.47195 | 4.01157 | 10908 ft | 308 kts | 153° |
| 2026-04-24 14:49 | 40.45271 | 4.02396 | 10539 ft | 307 kts | 153° |
| 2026-04-24 14:49 | 40.43355 | 4.03618 | 10166 ft | 305 kts | 153° |
| 2026-04-24 14:49 | 40.41466 | 4.04834 | 9796 ft | 304 kts | 153° |
| 2026-04-24 14:49 | 40.39571 | 4.06069 | 9420 ft | 302 kts | 152° |
| 2026-04-24 14:50 | 40.37711 | 4.07288 | 9057 ft | 300 kts | 152° |
| 2026-04-24 14:50 | 40.35852 | 4.08513 | 8695 ft | 299 kts | 152° |
| 2026-04-24 14:50 | 40.33984 | 4.09744 | 8322 ft | 297 kts | 152° |
| 2026-04-24 14:50 | 40.32153 | 4.10949 | 7971 ft | 295 kts | 152° |
| 2026-04-24 14:51 | 40.30338 | 4.12144 | 7605 ft | 293 kts | 152° |
| 2026-04-24 14:51 | 40.28503 | 4.13350 | 7224 ft | 291 kts | 152° |
| 2026-04-24 14:51 | 40.26721 | 4.14521 | 6895 ft | 289 kts | 152° |
| 2026-04-24 14:51 | 40.24932 | 4.15695 | 6582 ft | 285 kts | 152° |
| 2026-04-24 14:52 | 40.23155 | 4.16860 | 6245 ft | 283 kts | 152° |
| 2026-04-24 14:52 | 40.21415 | 4.18001 | 5888 ft | 282 kts | 152° |
| 2026-04-24 14:52 | 40.19663 | 4.19149 | 5543 ft | 279 kts | 152° |
| 2026-04-24 14:52 | 40.17944 | 4.20276 | 5207 ft | 277 kts | 152° |
| 2026-04-24 14:53 | 40.16223 | 4.21402 | 4867 ft | 275 kts | 152° |
| 2026-04-24 14:53 | 40.14497 | 4.22531 | 4522 ft | 273 kts | 152° |
| 2026-04-24 14:53 | 40.12823 | 4.23625 | 4248 ft | 268 kts | 152° |
| 2026-04-24 14:53 | 40.11172 | 4.24702 | 4145 ft | 257 kts | 152° |
| 2026-04-24 14:54 | 40.09614 | 4.25718 | 4063 ft | 246 kts | 152° |
| 2026-04-24 14:54 | 40.08107 | 4.26617 | 4002 ft | 233 kts | 158° |
| 2026-04-24 14:54 | 40.06542 | 4.26931 | 3915 ft | 223 kts | 187° |
| 2026-04-24 14:54 | 40.05113 | 4.26283 | 3791 ft | 214 kts | 203° |
| 2026-04-24 14:55 | 40.04234 | 4.25769 | 3715 ft | 206 kts | 200° |
| 2026-04-24 14:55 | 40.02391 | 4.25130 | 3311 ft | 202 kts | 187° |
| 2026-04-24 14:55 | 40.01015 | 4.24877 | 3035 ft | 199 kts | 185° |
| 2026-04-24 14:55 | 39.99667 | 4.24618 | 2769 ft | 194 kts | 186° |
| 2026-04-24 14:56 | 39.98381 | 4.24346 | 2534 ft | 179 kts | 186° |
| 2026-04-24 14:56 | 39.97179 | 4.24096 | 2261 ft | 171 kts | 186° |
| 2026-04-24 14:56 | 39.96031 | 4.23864 | 2051 ft | 165 kts | 186° |
| 2026-04-24 14:56 | 39.94896 | 4.23632 | 1827 ft | 164 kts | 186° |
| 2026-04-24 14:57 | 39.93759 | 4.23398 | 1639 ft | 160 kts | 186° |
| 2026-04-24 14:57 | 39.92688 | 4.23178 | 1384 ft | 155 kts | 186° |
| 2026-04-24 14:57 | 39.91651 | 4.22966 | 1187 ft | 148 kts | 186° |
| 2026-04-24 14:57 | 39.90622 | 4.22759 | 1001 ft | 150 kts | 185° |
| 2026-04-24 14:58 | 39.89596 | 4.22545 | 814 ft | 148 kts | 186° |
| 2026-04-24 14:58 | 39.88569 | 4.22329 | 600 ft | 150 kts | 185° |
| 2026-04-24 14:58 | 39.87545 | 4.22132 | 405 ft | 149 kts | 186° |
| 2026-04-24 14:58 | 39.86539 | 4.21920 | 296 ft | 136 kts | 188° |
| 2026-04-24 14:59 | 39.85839 | 4.21779 | 291 ft | 66 kts | 189° |
| 2026-04-24 14:59 | 39.85537 | 4.21783 | 282 ft | 30 kts | 161° |
| 2026-04-24 14:59 | 39.85422 | 4.21842 | 277 ft | 13 kts | 148° |
| 2026-04-24 14:59 | 39.85418 | 4.21932 | 274 ft | 12 kts | 15° |
| 2026-04-24 15:00 | 39.85506 | 4.21950 | 277 ft | 14 kts | 8° |
| 2026-04-24 15:00 | 39.85619 | 4.21972 | 283 ft | 18 kts | 8° |
| 2026-04-24 15:00 | 39.85765 | 4.22003 | 288 ft | 23 kts | 9° |
| 2026-04-24 15:00 | 39.85924 | 4.22034 | 289 ft | 22 kts | 8° |
| 2026-04-24 15:01 | 39.86083 | 4.22068 | 286 ft | 23 kts | 9° |
| 2026-04-24 15:01 | 39.86250 | 4.22101 | 283 ft | 24 kts | 8° |
| 2026-04-24 15:01 | 39.86424 | 4.22137 | 281 ft | 25 kts | 9° |
| 2026-04-24 15:01 | 39.86527 | 4.22159 | 281 ft | 6 kts | 23° |
| 2026-04-24 15:02 | 39.86545 | 4.22219 | 277 ft | 10 kts | 95° |
| 2026-04-24 15:02 | 39.86538 | 4.22326 | 272 ft | 12 kts | 89° |
| 2026-04-24 15:02 | 39.86531 | 4.22402 | 274 ft | 3 kts | 99° |
| 2026-04-24 15:02 | 39.86529 | 4.22421 | 274 ft | 1 kts | 99° |